sensor_id;sensor_type;location;lat;lon;timestamp;pressure;altitude;pressure_sealevel;temperature;humidity
21182;BME280;10749;46.296;7.524;2023-07-13T00:00:41;95010.63;;;22.71;52.88
21182;BME280;10749;46.296;7.524;2023-07-13T00:03:06;95007.94;;;22.71;53.13
21182;BME280;10749;46.296;7.524;2023-07-13T00:05:31;95014.47;;;22.75;53.67
21182;BME280;10749;46.296;7.524;2023-07-13T00:07:57;95024.13;;;22.71;53.84
21182;BME280;10749;46.296;7.524;2023-07-13T00:10:22;95024.94;;;22.72;54.00
21182;BME280;10749;46.296;7.524;2023-07-13T00:12:48;95025.75;;;22.72;54.11
21182;BME280;10749;46.296;7.524;2023-07-13T00:15:17;95016.63;;;22.78;53.49
21182;BME280;10749;46.296;7.524;2023-07-13T00:17:48;95014.69;;;22.74;53.64
21182;BME280;10749;46.296;7.524;2023-07-13T00:20:13;95025.25;;;22.75;54.16
21182;BME280;10749;46.296;7.524;2023-07-13T00:22:38;95022.78;;;22.74;54.09
21182;BME280;10749;46.296;7.524;2023-07-13T00:25:04;95025.75;;;22.72;54.67
21182;BME280;10749;46.296;7.524;2023-07-13T00:27:29;95031.66;;;22.69;54.21
21182;BME280;10749;46.296;7.524;2023-07-13T00:29:57;95030.00;;;22.68;54.72
21182;BME280;10749;46.296;7.524;2023-07-13T00:32:22;95024.00;;;22.66;54.83
21182;BME280;10749;46.296;7.524;2023-07-13T00:34:47;95026.72;;;22.66;55.49
21182;BME280;10749;46.296;7.524;2023-07-13T00:37:13;95020.19;;;22.62;54.91
21182;BME280;10749;46.296;7.524;2023-07-13T00:39:38;95020.19;;;22.62;55.62
21182;BME280;10749;46.296;7.524;2023-07-13T00:42:04;95027.81;;;22.65;55.37
21182;BME280;10749;46.296;7.524;2023-07-13T00:44:30;95037.50;;;22.66;55.75
21182;BME280;10749;46.296;7.524;2023-07-13T00:46:56;95033.44;;;22.64;55.88
21182;BME280;10749;46.296;7.524;2023-07-13T00:49:25;95034.56;;;22.68;55.58
21182;BME280;10749;46.296;7.524;2023-07-13T00:51:59;95030.00;;;22.68;55.76
21182;BME280;10749;46.296;7.524;2023-07-13T00:54:30;95027.22;;;22.63;55.93
21182;BME280;10749;46.296;7.524;2023-07-13T00:56:59;95024.44;;;22.58;55.94
21182;BME280;10749;46.296;7.524;2023-07-13T00:59:26;95016.13;;;22.60;56.14
21182;BME280;10749;46.296;7.524;2023-07-13T01:01:52;95018.81;;;22.60;56.16
21182;BME280;10749;46.296;7.524;2023-07-13T01:04:18;95022.03;;;22.57;56.13
21182;BME280;10749;46.296;7.524;2023-07-13T01:06:43;95026.63;;;22.61;55.96
21182;BME280;10749;46.296;7.524;2023-07-13T01:09:10;95029.84;;;22.58;56.57
21182;BME280;10749;46.296;7.524;2023-07-13T01:11:37;95022.81;;;22.57;56.32
21182;BME280;10749;46.296;7.524;2023-07-13T01:14:03;95027.41;;;22.57;56.20
21182;BME280;10749;46.296;7.524;2023-07-13T01:16:31;95024.94;;;22.55;56.46
21182;BME280;10749;46.296;7.524;2023-07-13T01:18:57;95021.03;;;22.46;56.42
21182;BME280;10749;46.296;7.524;2023-07-13T01:21:24;95013.53;;;22.48;55.84
21182;BME280;10749;46.296;7.524;2023-07-13T01:23:50;95008.38;;;22.46;54.58
21182;BME280;10749;46.296;7.524;2023-07-13T01:26:15;95004.69;;;22.52;54.97
21182;BME280;10749;46.296;7.524;2023-07-13T01:28:40;95005.25;;;22.54;55.74
21182;BME280;10749;46.296;7.524;2023-07-13T01:31:06;95010.41;;;22.56;56.06
21182;BME280;10749;46.296;7.524;2023-07-13T01:33:31;95008.19;;;22.53;56.52
21182;BME280;10749;46.296;7.524;2023-07-13T01:35:57;95011.47;;;22.55;56.65
21182;BME280;10749;46.296;7.524;2023-07-13T01:38:23;95011.97;;;22.52;57.07
21182;BME280;10749;46.296;7.524;2023-07-13T01:40:49;95017.59;;;22.50;57.17
21182;BME280;10749;46.296;7.524;2023-07-13T01:43:15;95010.25;;;22.46;57.20
21182;BME280;10749;46.296;7.524;2023-07-13T01:45:40;95013.03;;;22.51;57.28
21182;BME280;10749;46.296;7.524;2023-07-13T01:48:06;95014.91;;;22.50;57.38
21182;BME280;10749;46.296;7.524;2023-07-13T01:50:34;95013.78;;;22.46;57.29
21182;BME280;10749;46.296;7.524;2023-07-13T01:52:59;95002.69;;;22.43;57.34
21182;BME280;10749;46.296;7.524;2023-07-13T01:55:25;94997.84;;;22.45;57.57
21182;BME280;10749;46.296;7.524;2023-07-13T01:57:50;94996.22;;;22.44;57.34
21182;BME280;10749;46.296;7.524;2023-07-13T02:00:15;94996.69;;;22.41;57.59
21182;BME280;10749;46.296;7.524;2023-07-13T02:02:41;95000.47;;;22.40;57.73
21182;BME280;10749;46.296;7.524;2023-07-13T02:05:07;94992.41;;;22.40;57.93
21182;BME280;10749;46.296;7.524;2023-07-13T02:07:32;94995.13;;;22.45;57.78
21182;BME280;10749;46.296;7.524;2023-07-13T02:09:58;94993.44;;;22.39;58.06
21182;BME280;10749;46.296;7.524;2023-07-13T02:12:23;94990.75;;;22.39;57.90
21182;BME280;10749;46.296;7.524;2023-07-13T02:14:48;94989.63;;;22.35;57.91
21182;BME280;10749;46.296;7.524;2023-07-13T02:17:14;94995.53;;;22.32;58.13
21182;BME280;10749;46.296;7.524;2023-07-13T02:19:39;94999.19;;;22.26;58.42
21182;BME280;10749;46.296;7.524;2023-07-13T02:22:05;95003.44;;;22.22;58.39
21182;BME280;10749;46.296;7.524;2023-07-13T02:24:31;94997.00;;;22.23;58.57
21182;BME280;10749;46.296;7.524;2023-07-13T02:26:56;94999.13;;;22.21;58.71
21182;BME280;10749;46.296;7.524;2023-07-13T02:29:22;94998.06;;;22.22;58.59
21182;BME280;10749;46.296;7.524;2023-07-13T02:31:47;94994.03;;;22.24;58.52
21182;BME280;10749;46.296;7.524;2023-07-13T02:34:13;94997.81;;;22.23;58.68
21182;BME280;10749;46.296;7.524;2023-07-13T02:36:38;94993.72;;;22.21;58.73
21182;BME280;10749;46.296;7.524;2023-07-13T02:39:05;94990.94;;;22.16;58.61
21182;BME280;10749;46.296;7.524;2023-07-13T02:41:30;94986.31;;;22.11;58.54
21182;BME280;10749;46.296;7.524;2023-07-13T02:43:57;94982.97;;;22.04;59.13
21182;BME280;10749;46.296;7.524;2023-07-13T02:46:28;94986.47;;;22.04;59.04
21182;BME280;10749;46.296;7.524;2023-07-13T02:48:54;94983.22;;;22.02;58.87
21182;BME280;10749;46.296;7.524;2023-07-13T02:51:19;94981.91;;;22.05;58.92
21182;BME280;10749;46.296;7.524;2023-07-13T02:53:44;94980.59;;;22.07;58.92
21182;BME280;10749;46.296;7.524;2023-07-13T02:56:10;94983.88;;;22.09;59.25
21182;BME280;10749;46.296;7.524;2023-07-13T02:58:35;94982.97;;;22.04;59.35
21182;BME280;10749;46.296;7.524;2023-07-13T03:01:06;94978.97;;;22.06;59.55
21182;BME280;10749;46.296;7.524;2023-07-13T03:03:31;94981.09;;;22.04;59.62
21182;BME280;10749;46.296;7.524;2023-07-13T03:05:59;94981.09;;;22.04;59.29
21182;BME280;10749;46.296;7.524;2023-07-13T03:08:26;94981.09;;;22.04;59.24
21182;BME280;10749;46.296;7.524;2023-07-13T03:10:59;94985.66;;;22.04;59.25
21182;BME280;10749;46.296;7.524;2023-07-13T03:13:25;94981.09;;;22.04;59.32
21182;BME280;10749;46.296;7.524;2023-07-13T03:15:50;94979.44;;;22.03;59.51
21182;BME280;10749;46.296;7.524;2023-07-13T03:18:16;94977.84;;;22.02;59.24
21182;BME280;10749;46.296;7.524;2023-07-13T03:20:41;94982.41;;;22.02;59.24
21182;BME280;10749;46.296;7.524;2023-07-13T03:23:06;94984.53;;;22.00;59.54
21182;BME280;10749;46.296;7.524;2023-07-13T03:25:32;94974.41;;;21.90;59.81
21182;BME280;10749;46.296;7.524;2023-07-13T03:27:57;94969.47;;;21.87;59.62
21182;BME280;10749;46.296;7.524;2023-07-13T03:30:22;94976.50;;;21.88;60.02
21182;BME280;10749;46.296;7.524;2023-07-13T03:32:48;94970.88;;;21.90;60.01
21182;BME280;10749;46.296;7.524;2023-07-13T03:35:14;94973.09;;;21.93;59.54
21182;BME280;10749;46.296;7.524;2023-07-13T03:37:39;94964.28;;;21.97;58.74
21182;BME280;10749;46.296;7.524;2023-07-13T03:40:08;94974.56;;;22.00;59.08
21182;BME280;10749;46.296;7.524;2023-07-13T03:42:34;94965.94;;;21.98;59.42
21182;BME280;10749;46.296;7.524;2023-07-13T03:45:00;94985.34;;;22.00;59.76
21182;BME280;10749;46.296;7.524;2023-07-13T03:47:25;94978.91;;;22.01;59.45
21182;BME280;10749;46.296;7.524;2023-07-13T03:49:50;94972.44;;;22.02;59.88
21182;BME280;10749;46.296;7.524;2023-07-13T03:52:16;94968.19;;;22.06;59.74
21182;BME280;10749;46.296;7.524;2023-07-13T03:54:41;94977.84;;;22.02;60.09
21182;BME280;10749;46.296;7.524;2023-07-13T03:57:08;94973.50;;;22.01;60.01
21182;BME280;10749;46.296;7.524;2023-07-13T03:59:34;94971.31;;;21.98;59.72
21182;BME280;10749;46.296;7.524;2023-07-13T04:02:00;94976.34;;;21.95;60.04
21182;BME280;10749;46.296;7.524;2023-07-13T04:04:26;94985.25;;;21.95;60.30
21182;BME280;10749;46.296;7.524;2023-07-13T04:06:51;94994.03;;;21.91;60.05
21182;BME280;10749;46.296;7.524;2023-07-13T04:09:18;94997.00;;;21.89;60.43
21182;BME280;10749;46.296;7.524;2023-07-13T04:11:44;94999.38;;;21.86;60.65
21182;BME280;10749;46.296;7.524;2023-07-13T04:14:09;95010.63;;;21.83;60.66
21182;BME280;10749;46.296;7.524;2023-07-13T04:16:34;95003.34;;;21.83;60.26
21182;BME280;10749;46.296;7.524;2023-07-13T04:19:00;94999.84;;;21.83;60.30
21182;BME280;10749;46.296;7.524;2023-07-13T04:21:27;95007.69;;;21.84;60.27
21182;BME280;10749;46.296;7.524;2023-07-13T04:23:52;95008.28;;;21.86;60.37
21182;BME280;10749;46.296;7.524;2023-07-13T04:26:17;95007.69;;;21.84;60.42
21182;BME280;10749;46.296;7.524;2023-07-13T04:28:46;95002.31;;;21.84;60.48
21182;BME280;10749;46.296;7.524;2023-07-13T04:31:11;95007.94;;;21.83;60.95
21182;BME280;10749;46.296;7.524;2023-07-13T04:33:36;95010.88;;;21.81;60.88
21182;BME280;10749;46.296;7.524;2023-07-13T04:36:04;95010.63;;;21.83;60.94
21182;BME280;10749;46.296;7.524;2023-07-13T04:38:31;95013.09;;;21.84;60.83
21182;BME280;10749;46.296;7.524;2023-07-13T04:41:02;95020.94;;;21.86;60.90
21182;BME280;10749;46.296;7.524;2023-07-13T04:43:29;95021.75;;;21.86;60.87
21182;BME280;10749;46.296;7.524;2023-07-13T04:45:55;95014.72;;;21.85;60.92
21182;BME280;10749;46.296;7.524;2023-07-13T04:48:21;95027.94;;;21.87;60.92
21182;BME280;10749;46.296;7.524;2023-07-13T04:50:47;95019.13;;;21.91;61.08
21182;BME280;10749;46.296;7.524;2023-07-13T04:53:13;95029.78;;;21.98;60.79
21182;BME280;10749;46.296;7.524;2023-07-13T04:55:38;95031.97;;;22.01;60.77
21182;BME280;10749;46.296;7.524;2023-07-13T04:58:04;95031.75;;;22.02;60.65
21182;BME280;10749;46.296;7.524;2023-07-13T05:00:30;95027.97;;;22.03;61.06
21182;BME280;10749;46.296;7.524;2023-07-13T05:02:57;95025.63;;;22.07;60.79
21182;BME280;10749;46.296;7.524;2023-07-13T05:05:23;95032.63;;;22.08;61.04
21182;BME280;10749;46.296;7.524;2023-07-13T05:07:49;95027.53;;;22.12;60.74
21182;BME280;10749;46.296;7.524;2023-07-13T05:10:14;95017.34;;;22.14;60.98
21182;BME280;10749;46.296;7.524;2023-07-13T05:12:39;95019.81;;;22.15;60.78
21182;BME280;10749;46.296;7.524;2023-07-13T05:15:05;95022.25;;;22.17;60.79
21182;BME280;10749;46.296;7.524;2023-07-13T05:17:31;95019.00;;;22.15;61.12
21182;BME280;10749;46.296;7.524;2023-07-13T05:19:56;95017.34;;;22.14;61.30
21182;BME280;10749;46.296;7.524;2023-07-13T05:22:21;95020.59;;;22.16;60.47
21182;BME280;10749;46.296;7.524;2023-07-13T05:24:47;95016.53;;;22.13;60.43
21182;BME280;10749;46.296;7.524;2023-07-13T05:27:12;95019.81;;;22.15;60.33
21182;BME280;10749;46.296;7.524;2023-07-13T05:29:38;95015.72;;;22.13;61.16
21182;BME280;10749;46.296;7.524;2023-07-13T05:32:03;95020.59;;;22.16;61.16
21182;BME280;10749;46.296;7.524;2023-07-13T05:34:29;95024.19;;;22.21;61.32
21182;BME280;10749;46.296;7.524;2023-07-13T05:36:54;95020.44;;;22.22;61.42
21182;BME280;10749;46.296;7.524;2023-07-13T05:39:19;95024.81;;;22.28;61.36
21182;BME280;10749;46.296;7.524;2023-07-13T05:41:45;95018.16;;;22.31;61.06
21182;BME280;10749;46.296;7.524;2023-07-13T05:44:10;95021.41;;;22.33;61.03
21182;BME280;10749;46.296;7.524;2023-07-13T05:46:35;95029.25;;;22.34;61.12
21182;BME280;10749;46.296;7.524;2023-07-13T05:49:01;95025.00;;;22.38;61.02
21182;BME280;10749;46.296;7.524;2023-07-13T05:51:26;95038.22;;;22.40;61.32
21182;BME280;10749;46.296;7.524;2023-07-13T05:53:51;95042.06;;;22.44;61.15
21182;BME280;10749;46.296;7.524;2023-07-13T05:56:16;95040.75;;;22.46;60.86
21182;BME280;10749;46.296;7.524;2023-07-13T05:58:42;95050.19;;;22.49;61.38
21182;BME280;10749;46.296;7.524;2023-07-13T06:01:12;95042.19;;;22.54;61.43
21182;BME280;10749;46.296;7.524;2023-07-13T06:03:38;95048.09;;;22.51;61.56
21182;BME280;10749;46.296;7.524;2023-07-13T06:06:04;95051.59;;;22.51;61.86
21182;BME280;10749;46.296;7.524;2023-07-13T06:08:30;95058.97;;;22.56;61.79
21182;BME280;10749;46.296;7.524;2023-07-13T06:11:10;95056.56;;;22.60;61.65
21182;BME280;10749;46.296;7.524;2023-07-13T06:13:37;95056.81;;;22.58;61.93
21182;BME280;10749;46.296;7.524;2023-07-13T06:16:02;95052.75;;;22.55;61.43
21182;BME280;10749;46.296;7.524;2023-07-13T06:18:30;95060.56;;;22.57;60.09
21182;BME280;10749;46.296;7.524;2023-07-13T06:20:56;95060.25;;;22.53;59.92
21182;BME280;10749;46.296;7.524;2023-07-13T06:23:22;95061.56;;;22.51;59.79
21182;BME280;10749;46.296;7.524;2023-07-13T06:25:47;95049.66;;;22.47;59.78
21182;BME280;10749;46.296;7.524;2023-07-13T06:28:13;95061.75;;;22.44;60.66
21182;BME280;10749;46.296;7.524;2023-07-13T06:30:38;95056.19;;;22.51;61.30
21182;BME280;10749;46.296;7.524;2023-07-13T06:33:04;95061.16;;;22.59;61.00
21182;BME280;10749;46.296;7.524;2023-07-13T06:35:30;95068.50;;;22.64;60.48
21182;BME280;10749;46.296;7.524;2023-07-13T06:37:55;95070.47;;;22.68;60.48
21182;BME280;10749;46.296;7.524;2023-07-13T06:40:20;95077.00;;;22.72;59.65
21182;BME280;10749;46.296;7.524;2023-07-13T06:42:45;95068.91;;;22.72;59.81
21182;BME280;10749;46.296;7.524;2023-07-13T06:45:11;95067.53;;;22.70;60.09
21182;BME280;10749;46.296;7.524;2023-07-13T06:47:36;95064.59;;;22.71;59.85
21182;BME280;10749;46.296;7.524;2023-07-13T06:50:01;95069.31;;;22.81;60.22
21182;BME280;10749;46.296;7.524;2023-07-13T06:52:27;95077.66;;;22.79;60.43
21182;BME280;10749;46.296;7.524;2023-07-13T06:54:52;95079.84;;;22.82;60.21
21182;BME280;10749;46.296;7.524;2023-07-13T06:57:18;95081.41;;;22.78;60.42
21182;BME280;10749;46.296;7.524;2023-07-13T06:59:43;95081.78;;;22.87;60.20
21182;BME280;10749;46.296;7.524;2023-07-13T07:02:11;95081.97;;;22.80;60.70
21182;BME280;10749;46.296;7.524;2023-07-13T07:04:36;95077.13;;;22.82;60.93
21182;BME280;10749;46.296;7.524;2023-07-13T07:07:02;95073.13;;;22.85;61.00
21182;BME280;10749;46.296;7.524;2023-07-13T07:09:27;95079.78;;;22.99;61.31
21182;BME280;10749;46.296;7.524;2023-07-13T07:11:55;95077.22;;;23.09;61.16
21182;BME280;10749;46.296;7.524;2023-07-13T07:14:20;95081.72;;;23.04;61.46
21182;BME280;10749;46.296;7.524;2023-07-13T07:16:45;95079.16;;;22.92;61.17
21182;BME280;10749;46.296;7.524;2023-07-13T07:19:11;95084.34;;;22.98;61.45
21182;BME280;10749;46.296;7.524;2023-07-13T07:21:36;95077.22;;;23.09;60.93
21182;BME280;10749;46.296;7.524;2023-07-13T07:24:01;95071.06;;;23.14;60.89
21182;BME280;10749;46.296;7.524;2023-07-13T07:26:28;95076.56;;;23.24;60.82
21182;BME280;10749;46.296;7.524;2023-07-13T07:28:53;95076.47;;;23.14;60.97
21182;BME280;10749;46.296;7.524;2023-07-13T07:31:19;95069.28;;;23.02;60.92
21182;BME280;10749;46.296;7.524;2023-07-13T07:33:44;95078.03;;;22.88;60.79
21182;BME280;10749;46.296;7.524;2023-07-13T07:36:09;95073.63;;;22.82;60.34
21182;BME280;10749;46.296;7.524;2023-07-13T07:38:35;95073.31;;;22.78;60.89
21182;BME280;10749;46.296;7.524;2023-07-13T07:41:03;95077.22;;;22.87;60.56
21182;BME280;10749;46.296;7.524;2023-07-13T07:43:29;95083.47;;;22.71;60.74
21182;BME280;10749;46.296;7.524;2023-07-13T07:45:55;95077.53;;;22.69;60.69
21182;BME280;10749;46.296;7.524;2023-07-13T07:48:20;95070.88;;;22.60;59.99
21182;BME280;10749;46.296;7.524;2023-07-13T07:50:46;95069.88;;;22.66;60.33
21182;BME280;10749;46.296;7.524;2023-07-13T07:53:11;95075.44;;;22.76;60.45
21182;BME280;10749;46.296;7.524;2023-07-13T07:55:37;95073.88;;;22.80;60.48
21182;BME280;10749;46.296;7.524;2023-07-13T07:58:04;95075.56;;;22.86;60.47
21182;BME280;10749;46.296;7.524;2023-07-13T08:00:30;95083.50;;;22.93;60.50
21182;BME280;10749;46.296;7.524;2023-07-13T08:02:57;95083.31;;;22.99;60.22
21182;BME280;10749;46.296;7.524;2023-07-13T08:05:22;95089.56;;;22.83;59.74
21182;BME280;10749;46.296;7.524;2023-07-13T08:07:47;95082.06;;;22.85;60.02
21182;BME280;10749;46.296;7.524;2023-07-13T08:10:12;95083.75;;;22.91;59.96
21182;BME280;10749;46.296;7.524;2023-07-13T08:12:39;95069.88;;;22.66;59.80
21182;BME280;10749;46.296;7.524;2023-07-13T08:15:08;95079.06;;;22.65;59.40
21182;BME280;10749;46.296;7.524;2023-07-13T08:17:34;95081.91;;;22.75;60.04
21182;BME280;10749;46.296;7.524;2023-07-13T08:22:24;95082.09;;;22.69;59.95
21182;BME280;10749;46.296;7.524;2023-07-13T08:24:49;95087.22;;;22.70;60.02
21182;BME280;10749;46.296;7.524;2023-07-13T08:27:22;95085.97;;;22.78;59.78
21182;BME280;10749;46.296;7.524;2023-07-13T08:29:48;95081.47;;;22.83;59.91
21182;BME280;10749;46.296;7.524;2023-07-13T08:32:14;95076.16;;;22.88;59.81
21182;BME280;10749;46.296;7.524;2023-07-13T08:34:39;95078.34;;;22.91;59.68
21182;BME280;10749;46.296;7.524;2023-07-13T08:37:05;95088.00;;;22.87;59.73
21182;BME280;10749;46.296;7.524;2023-07-13T08:39:31;95100.56;;;22.98;59.57
21182;BME280;10749;46.296;7.524;2023-07-13T08:42:02;95097.94;;;23.04;59.74
21182;BME280;10749;46.296;7.524;2023-07-13T08:47:40;95093.03;;;23.00;59.73
21182;BME280;10749;46.296;7.524;2023-07-13T08:50:12;95093.59;;;22.81;59.43
21182;BME280;10749;46.296;7.524;2023-07-13T08:52:40;95093.28;;;22.77;59.90
21182;BME280;10749;46.296;7.524;2023-07-13T08:55:14;95100.38;;;22.83;60.29
21182;BME280;10749;46.296;7.524;2023-07-13T08:57:42;95099.50;;;22.99;60.19
21182;BME280;10749;46.296;7.524;2023-07-13T09:00:12;95101.69;;;23.02;59.85
21182;BME280;10749;46.296;7.524;2023-07-13T09:02:45;95100.19;;;23.12;60.21
21182;BME280;10749;46.296;7.524;2023-07-13T09:10:52;95097.31;;;22.96;59.46
21182;BME280;10749;46.296;7.524;2023-07-13T09:13:42;95103.97;;;23.11;59.77
21182;BME280;10749;46.296;7.524;2023-07-13T09:16:11;95098.63;;;23.37;60.05
21182;BME280;10749;46.296;7.524;2023-07-13T09:18:47;95104.09;;;23.64;59.70
21182;BME280;10749;46.296;7.524;2023-07-13T09:21:20;95099.00;;;23.68;59.77
21182;BME280;10749;46.296;7.524;2023-07-13T09:23:47;95099.84;;;23.73;59.33
21182;BME280;10749;46.296;7.524;2023-07-13T09:26:14;95095.06;;;23.80;59.16
21182;BME280;10749;46.296;7.524;2023-07-13T09:29:32;95093.66;;;23.78;59.24
21182;BME280;10749;46.296;7.524;2023-07-13T09:31:34;95093.38;;;23.74;59.22
21182;BME280;10749;46.296;7.524;2023-07-13T09:34:02;95084.19;;;23.75;58.93
21182;BME280;10749;46.296;7.524;2023-07-13T09:36:30;95089.13;;;23.83;59.01
21182;BME280;10749;46.296;7.524;2023-07-13T09:39:05;95090.59;;;23.69;58.52
21182;BME280;10749;46.296;7.524;2023-07-13T09:44:29;95101.50;;;23.53;58.78
21182;BME280;10749;46.296;7.524;2023-07-13T09:46:58;95099.38;;;23.33;58.45
21182;BME280;10749;46.296;7.524;2023-07-13T09:49:28;95096.50;;;23.39;58.93
21182;BME280;10749;46.296;7.524;2023-07-13T09:52:00;95094.81;;;23.55;58.68
21182;BME280;10749;46.296;7.524;2023-07-13T09:54:27;95094.75;;;23.77;58.84
21182;BME280;10749;46.296;7.524;2023-07-13T09:56:59;95092.19;;;23.92;58.69
21182;BME280;10749;46.296;7.524;2023-07-13T09:59:36;95082.03;;;24.04;58.87
21182;BME280;10749;46.296;7.524;2023-07-13T10:02:25;95095.84;;;24.08;58.28
21182;BME280;10749;46.296;7.524;2023-07-13T10:05:11;95093.19;;;24.13;58.18
21182;BME280;10749;46.296;7.524;2023-07-13T10:07:43;95097.44;;;24.30;58.05
21182;BME280;10749;46.296;7.524;2023-07-13T10:10:18;95092.28;;;24.29;57.65
21182;BME280;10749;46.296;7.524;2023-07-13T10:12:45;95082.31;;;24.08;57.66
21182;BME280;10749;46.296;7.524;2023-07-13T10:15:16;95084.50;;;24.06;57.40
21182;BME280;10749;46.296;7.524;2023-07-13T10:17:43;95093.88;;;24.25;57.35
21182;BME280;10749;46.296;7.524;2023-07-13T10:20:09;95082.66;;;24.43;57.69
21182;BME280;10749;46.296;7.524;2023-07-13T10:25:26;95076.28;;;24.64;57.31
21182;BME280;10749;46.296;7.524;2023-07-13T10:27:58;95073.06;;;24.72;57.38
21182;BME280;10749;46.296;7.524;2023-07-13T10:30:29;95060.94;;;24.75;56.90
21182;BME280;10749;46.296;7.524;2023-07-13T10:33:02;95060.06;;;24.69;56.85
21182;BME280;10749;46.296;7.524;2023-07-13T10:35:30;95055.84;;;24.83;56.77
21182;BME280;10749;46.296;7.524;2023-07-13T10:38:06;95064.03;;;24.94;56.54
21182;BME280;10749;46.296;7.524;2023-07-13T10:40:41;95064.34;;;25.02;56.58
21182;BME280;10749;46.296;7.524;2023-07-13T10:43:18;95058.69;;;25.14;56.42
21182;BME280;10749;46.296;7.524;2023-07-13T10:45:46;95057.09;;;25.13;55.94
21182;BME280;10749;46.296;7.524;2023-07-13T10:48:15;95051.66;;;25.18;56.03
21182;BME280;10749;46.296;7.524;2023-07-13T10:50:44;95061.22;;;25.36;56.06
21182;BME280;10749;46.296;7.524;2023-07-13T10:53:28;95049.41;;;25.62;56.25
21182;BME280;10749;46.296;7.524;2023-07-13T10:55:56;95045.06;;;25.76;56.33
21182;BME280;10749;46.296;7.524;2023-07-13T11:04:00;95048.63;;;26.07;55.66
21182;BME280;10749;46.296;7.524;2023-07-13T11:06:33;95048.63;;;26.07;55.57
21182;BME280;10749;46.296;7.524;2023-07-13T11:11:58;95041.88;;;26.35;55.64
21182;BME280;10749;46.296;7.524;2023-07-13T11:14:28;95034.81;;;26.49;55.67
21182;BME280;10749;46.296;7.524;2023-07-13T11:16:54;95015.81;;;26.54;55.72
21182;BME280;10749;46.296;7.524;2023-07-13T11:24:29;95018.16;;;26.76;55.43
21182;BME280;10749;46.296;7.524;2023-07-13T11:27:41;95016.53;;;26.90;54.83
21182;BME280;10749;46.296;7.524;2023-07-13T11:33:07;95009.44;;;26.84;54.40
21182;BME280;10749;46.296;7.524;2023-07-13T11:35:44;95006.19;;;26.92;54.54
21182;BME280;10749;46.296;7.524;2023-07-13T11:38:15;95012.19;;;26.94;54.30
21182;BME280;10749;46.296;7.524;2023-07-13T11:40:43;95007.81;;;26.98;54.10
21182;BME280;10749;46.296;7.524;2023-07-13T11:43:13;95009.16;;;27.00;53.93
21182;BME280;10749;46.296;7.524;2023-07-13T11:45:39;95008.38;;;27.00;53.66
21182;BME280;10749;46.296;7.524;2023-07-13T11:48:04;94995.56;;;27.00;53.40
21182;BME280;10749;46.296;7.524;2023-07-13T11:50:29;94990.91;;;27.11;53.32
21182;BME280;10749;46.296;7.524;2023-07-13T11:52:58;94987.63;;;27.19;53.32
21182;BME280;10749;46.296;7.524;2023-07-13T11:55:24;94989.19;;;27.30;53.13
21182;BME280;10749;46.296;7.524;2023-07-13T11:57:59;94989.94;;;27.41;53.31
21182;BME280;10749;46.296;7.524;2023-07-13T12:00:31;94985.88;;;27.38;52.73
21182;BME280;10749;46.296;7.524;2023-07-13T12:02:59;94979.34;;;27.39;52.68
21182;BME280;10749;46.296;7.524;2023-07-13T12:05:26;94986.41;;;27.45;52.69
21182;BME280;10749;46.296;7.524;2023-07-13T12:07:52;94975.53;;;27.45;52.38
21182;BME280;10749;46.296;7.524;2023-07-13T12:10:27;94976.84;;;27.53;51.85
21182;BME280;10749;46.296;7.524;2023-07-13T12:12:59;94966.47;;;27.60;52.13
21182;BME280;10749;46.296;7.524;2023-07-13T12:15:41;94974.25;;;27.72;51.45
21182;BME280;10749;46.296;7.524;2023-07-13T12:20:40;94966.06;;;27.77;51.19
21182;BME280;10749;46.296;7.524;2023-07-13T12:23:10;94960.63;;;27.77;50.50
21182;BME280;10749;46.296;7.524;2023-07-13T12:25:45;94966.56;;;27.84;50.25
21182;BME280;10749;46.296;7.524;2023-07-13T12:28:21;94968.91;;;27.95;50.00
21182;BME280;10749;46.296;7.524;2023-07-13T12:30:48;94962.09;;;27.98;50.40
21182;BME280;10749;46.296;7.524;2023-07-13T12:33:14;94970.16;;;28.08;49.96
21182;BME280;10749;46.296;7.524;2023-07-13T12:35:47;94969.00;;;28.19;49.75
21182;BME280;10749;46.296;7.524;2023-07-13T12:38:13;94954.88;;;28.17;49.15
21182;BME280;10749;46.296;7.524;2023-07-13T12:40:39;94946.66;;;28.22;49.42
21182;BME280;10749;46.296;7.524;2023-07-13T12:43:12;94938.09;;;28.34;49.13
21182;BME280;10749;46.296;7.524;2023-07-13T12:45:38;94944.28;;;28.44;48.91
21182;BME280;10749;46.296;7.524;2023-07-13T12:48:15;94936.59;;;28.47;48.81
21182;BME280;10749;46.296;7.524;2023-07-13T12:50:45;94938.69;;;28.55;48.69
21182;BME280;10749;46.296;7.524;2023-07-13T12:53:22;94942.41;;;28.64;48.50
21182;BME280;10749;46.296;7.524;2023-07-13T12:55:56;94942.25;;;28.79;48.58
21182;BME280;10749;46.296;7.524;2023-07-13T12:58:34;94938.38;;;28.85;48.48
21182;BME280;10749;46.296;7.524;2023-07-13T13:01:02;94926.91;;;28.88;47.85
21182;BME280;10749;46.296;7.524;2023-07-13T13:03:36;94933.97;;;28.89;47.73
21182;BME280;10749;46.296;7.524;2023-07-13T13:06:20;94928.56;;;28.84;47.30
21182;BME280;10749;46.296;7.524;2023-07-13T13:08:49;94917.41;;;28.85;47.41
21182;BME280;10749;46.296;7.524;2023-07-13T13:11:15;94914.31;;;28.92;46.53
21182;BME280;10749;46.296;7.524;2023-07-13T13:13:44;94920.50;;;28.98;46.89
21182;BME280;10749;46.296;7.524;2023-07-13T13:16:12;94906.22;;;29.06;46.90
21182;BME280;10749;46.296;7.524;2023-07-13T13:18:39;94910.28;;;29.08;46.46
21182;BME280;10749;46.296;7.524;2023-07-13T13:21:04;94914.41;;;29.24;47.01
21182;BME280;10749;46.296;7.524;2023-07-13T13:23:30;94911.84;;;29.33;46.50
21182;BME280;10749;46.296;7.524;2023-07-13T13:25:55;94904.78;;;29.32;46.28
21182;BME280;10749;46.296;7.524;2023-07-13T13:28:21;94901.63;;;29.44;46.18
21182;BME280;10749;46.296;7.524;2023-07-13T13:30:50;94896.06;;;29.49;44.65
21182;BME280;10749;46.296;7.524;2023-07-13T13:33:18;94909.72;;;29.49;45.47
21182;BME280;10749;46.296;7.524;2023-07-13T13:35:44;94914.53;;;29.57;45.34
21182;BME280;10749;46.296;7.524;2023-07-13T13:38:14;94915.91;;;29.73;45.40